Airfield :
LOGIN :

Register | Disclaimer

   EN    FR    IT 

 










Legend :    VFR   Marginal VFR   IFR   Intensive IFR   Very Intensive IFR
Visi :
Ceiling :
>= 8 km
>= 3000ft
5 to 8 km
1000 to 3000 ft
1500m to 5 km
500 to 1000 ft
800 to 1500m
200 to 500 ft
< 800m
< 200 ft
Symbols :   Thunderstorms  Fog  Heavy snow  Heavy precipitations  Wind > 20 kt
SIGMETs :     Misc.  Thunderstorms  Icing  Turbulence  Mountain Waves  Volcanic Ashes






- Airport Elevation : 297 ft
- IATA code : UIP


LFRQ - Quimper Pluguffan

CURRENT METAR :
  • 231130Z AUTO 11003KT 080V140 9999 OVC038 11/09 Q1025 NOSIG

EXPIRED METARs :
  • 231100Z AUTO VRB02KT 9999 OVC037 10/09 Q1026 NOSIG
  • 231030Z AUTO VRB02KT 9999 OVC039 09/08 Q1026 NOSIG
  • 231000Z AUTO VRB02KT 9999 OVC039 09/08 Q1026 NOSIG
  • 230930Z AUTO 04003KT 9999 OVC039 08/07 Q1026 BECMG 17010KT
  • 230900Z AUTO VRB02KT 9999 OVC040 08/07 Q1026 NOSIG
  • 230830Z AUTO 02003KT 350V050 9999 OVC040 07/07 Q1026 BECMG 17010KT

TAF TAF LFRQ
Valid from the 23 at 06:00 until the 24 at 06:00 UTC


230500Z 2306/2406 03004KT 9999 BKN030 BKN040
BECMG 2310/2312 17010KT



MET'MAP, your aeronautical weather chart ! - Copyright ORBIFLY December 2007 - Disclaimer

ORBIFLY MET'MAP TEAM :

Programming & Development : Alexandra Zaïnal
Concept & original design : Baudouin d'Aumeries
Assistance for programming : Marc-Olivier Méhu
Technical & hardware support : Manuel Goepfert

Contact : metmap@orbifly.com




SOURCES & CREDITS :

   NOAA